Time;durP1;ratioP1;P1;durP2;ratioP2;P2;SDS_P1;SDS_P2;PMS_P1;PMS_P2;Temp;Humidity;BMP_temperature;BMP_pressure;BME280_temperature;BME280_humidity;BME280_pressure;Samples;Min_cycle;Max_cycle;Signal;HPM_P1;HPM_P2
2022/01/14 00:01:32;;;;;;;2.20;2.00;;;-3.80;1.40;;;-2.99;100.00;97222.95;619937;226;31985;-73
2022/01/14 00:04:16;;;;;;;4.87;3.42;;;-3.90;1.40;;;-2.93;100.00;97222.95;646545;212;32194;-73
2022/01/14 00:06:58;;;;;;;5.55;3.55;;;-4.00;1.40;;;-2.85;100.00;97220.46;612646;226;32640;-73
2022/01/14 00:09:39;;;;;;;4.75;4.15;;;-3.90;1.40;;;-2.89;100.00;97218.47;645363;216;31579;-75
2022/01/14 00:12:35;;;;;;;4.43;2.25;;;-3.90;1.40;;;-2.96;100.00;97222.14;647233;216;31587;-77
2022/01/14 00:15:28;;;;;;;6.97;2.40;;;-4.00;1.40;;;-2.93;100.00;97222.16;642107;216;31644;-76
2022/01/14 00:18:10;;;;;;;10.38;3.30;;;-4.00;1.40;;;-3.00;100.00;97220.88;646918;212;32007;-73
2022/01/14 00:20:52;;;;;;;6.22;2.87;;;-4.10;1.40;;;-3.28;100.00;97211.05;647944;216;31823;-76
2022/01/14 00:23:39;;;;;;;5.00;3.10;;;-4.20;1.40;;;-3.26;100.00;97208.86;647275;212;31557;-74
2022/01/14 00:32:02;;;;;;;5.90;3.10;;;-4.30;1.40;;;-3.42;100.00;97192.70;648305;212;31535;-73
2022/01/14 00:35:51;;;;;;;3.97;2.33;;;-4.30;1.40;;;-3.45;100.00;97193.86;645805;216;31634;-73
2022/01/14 00:38:33;;;;;;;3.85;3.45;;;-4.30;1.40;;;-3.43;100.00;97183.54;646121;216;32253;-74
2022/01/14 00:41:18;;;;;;;3.20;2.80;;;-4.30;1.40;;;-3.46;100.00;97184.86;617863;222;32003;-77
2022/01/14 00:44:09;;;;;;;1.33;1.33;;;-4.30;1.40;;;-3.41;100.00;97183.11;646919;212;35100;-73
2022/01/14 00:46:50;;;;;;;4.10;3.10;;;-4.30;1.40;;;-3.43;100.00;97182.49;647406;216;31710;-76
2022/01/14 00:49:32;;;;;;;6.50;3.40;;;-4.30;1.40;;;-3.33;100.00;97183.84;618952;222;31948;-73
2022/01/14 00:52:21;;;;;;;3.78;2.10;;;-4.30;1.40;;;-3.20;100.00;97185.92;647221;216;31579;-77
2022/01/14 00:55:09;;;;;;;3.30;3.00;;;-4.20;1.40;;;-3.19;100.00;97183.66;646577;216;31652;-74
2022/01/14 01:00:53;;;;;;;2.58;1.95;;;-4.10;1.40;;;-2.96;100.00;97176.30;647041;216;31583;-77
2022/01/14 01:03:40;;;;;;;2.17;1.98;;;-4.10;1.40;;;-2.93;100.00;97177.61;647244;216;31597;-73
2022/01/14 01:06:25;;;;;;;5.37;3.65;;;-4.20;1.40;;;-3.16;100.00;97174.72;647993;212;31599;-73
2022/01/14 01:09:10;;;;;;;3.50;2.28;;;-4.20;1.40;;;-3.37;100.00;97169.16;646956;212;31585;-77
2022/01/14 01:12:05;;;;;;;3.30;2.70;;;-4.30;1.40;;;-3.50;100.00;97164.34;645590;212;31895;-74
2022/01/14 01:14:57;;;;;;;4.70;3.00;;;-4.30;1.40;;;-3.60;100.00;97161.49;646849;216;31591;-73
2022/01/14 01:17:37;;;;;;;4.60;1.98;;;-4.30;1.40;;;-3.64;100.00;97161.85;648626;216;31607;-78
2022/01/14 01:20:21;;;;;;;6.20;2.05;;;-4.30;1.40;;;-3.63;100.00;97162.35;647532;216;31585;-76
2022/01/14 01:23:04;;;;;;;6.03;1.75;;;-4.40;1.40;;;-3.60;100.00;97165.65;646669;212;31689;-78
2022/01/14 01:25:49;;;;;;;5.90;2.40;;;-4.40;1.40;;;-3.52;100.00;97162.30;647738;216;32004;-74
2022/01/14 01:28:26;;;;;;;4.10;3.70;;;-4.40;1.40;;;-3.72;100.00;97161.36;645161;216;31626;-74
2022/01/14 01:35:53;;;;;;;3.95;1.92;;;-4.50;1.40;;;-3.69;100.00;97158.56;646896;212;31587;-77
2022/01/14 01:38:35;;;;;;;2.37;1.83;;;-4.60;1.40;;;-3.76;100.00;97159.50;647201;212;31671;-77
2022/01/14 01:41:19;;;;;;;3.00;2.10;;;-4.60;1.40;;;-3.78;100.00;97156.45;646523;216;31907;-76
2022/01/14 01:44:08;;;;;;;3.90;1.40;;;-4.60;1.40;;;-3.67;100.00;97157.67;646806;216;31636;-78
2022/01/14 01:46:55;;;;;;;3.28;2.37;;;-4.80;1.40;;;-3.73;100.00;97164.67;646952;216;42861;-75
2022/01/14 01:49:43;;;;;;;3.45;1.45;;;-4.70;1.40;;;-3.75;100.00;97173.42;632380;217;32285;-77
2022/01/14 01:52:31;;;;;;;2.60;1.80;;;-4.70;1.40;;;-3.73;100.00;97169.04;646038;216;31583;-74
2022/01/14 01:55:13;;;;;;;3.20;1.70;;;-4.70;1.40;;;-3.73;100.00;97166.41;647536;216;31555;-74
2022/01/14 01:58:00;;;;;;;5.30;2.10;;;-4.80;1.40;;;-3.75;100.00;97169.20;618349;226;32173;-78
2022/01/14 02:00:42;;;;;;;2.25;2.15;;;-4.80;1.40;;;-4.01;100.00;97166.48;620647;222;31891;-77
2022/01/14 02:03:30;;;;;;;3.05;1.65;;;-4.90;1.40;;;-4.11;100.00;97167.34;618985;222;31890;-76
2022/01/14 02:06:18;;;;;;;2.30;1.80;;;-5.00;1.40;;;-4.16;100.00;97162.81;638750;216;34638;-78
2022/01/14 02:09:05;;;;;;;2.58;2.20;;;-5.00;1.40;;;-4.21;100.00;97163.73;618297;226;31949;-74
2022/01/14 02:11:47;;;;;;;3.10;1.42;;;-5.00;1.40;;;-4.23;100.00;97161.52;646965;216;31584;-76
2022/01/14 02:14:53;;;;;;;1.00;0.90;;;-5.10;1.40;;;-4.30;100.00;97163.04;645201;216;31571;-76
2022/01/14 02:17:28;;;;;;;8.90;2.10;;;-5.00;1.40;;;-4.23;100.00;97161.19;646635;212;31600;-78
2022/01/14 02:22:54;;;;;;;2.30;1.30;;;-5.10;1.40;;;-4.03;100.00;97157.27;646442;216;31854;-73
2022/01/14 02:25:36;;;;;;;0.93;0.93;;;-5.00;1.40;;;-3.91;100.00;97155.27;646514;216;31575;-73
2022/01/14 02:28:28;;;;;;;6.55;1.75;;;-4.90;1.40;;;-4.25;100.00;97147.95;642956;213;31541;-77
2022/01/14 02:31:12;;;;;;;5.00;2.20;;;-5.00;1.40;;;-4.38;100.00;97148.27;646004;216;38509;-76
2022/01/14 02:35:55;;;;;;;3.20;1.80;;;-5.00;1.40;;;-4.14;100.00;97145.87;647713;212;31821;-78
2022/01/14 02:38:37;;;;;;;2.33;2.12;;;-5.00;1.40;;;-4.31;100.00;97142.09;646887;216;31878;-77
2022/01/14 02:41:19;;;;;;;1.80;1.70;;;-5.00;1.40;;;-4.39;100.00;97133.38;647879;216;31618;-76
2022/01/14 02:44:05;;;;;;;1.73;1.23;;;-5.10;1.40;;;-4.39;100.00;97125.70;646749;212;32048;-76
2022/01/14 02:46:53;;;;;;;3.08;1.15;;;-5.00;1.40;;;-4.34;100.00;97130.41;646181;212;31554;-76
2022/01/14 02:49:31;;;;;;;4.40;1.70;;;-4.90;1.40;;;-4.35;100.00;97122.21;646265;216;31688;-76
2022/01/14 02:52:13;;;;;;;1.95;1.75;;;-4.90;1.40;;;-4.31;100.00;97119.07;646621;216;31567;-76
2022/01/14 02:57:32;;;;;;;1.48;1.37;;;-4.90;1.40;;;-4.32;100.00;97113.03;648205;212;31551;-78
2022/01/14 03:02:54;;;;;;;4.28;1.48;;;-4.90;1.40;;;-4.25;100.00;97118.06;646298;216;31686;-77
2022/01/14 03:05:39;;;;;;;1.60;1.42;;;-5.00;1.40;;;-4.15;100.00;97118.75;610667;226;32007;-77
2022/01/14 03:08:23;;;;;;;4.22;2.40;;;-5.00;1.40;;;-4.13;100.00;97115.33;646538;216;31651;-73
2022/01/14 03:11:09;;;;;;;2.90;1.70;;;-5.00;1.40;;;-4.04;100.00;97113.48;620255;226;31971;-76
2022/01/14 03:13:51;;;;;;;1.75;1.40;;;-5.00;1.40;;;-3.92;100.00;97107.14;646852;216;31562;-76
2022/01/14 03:16:41;;;;;;;2.40;2.20;;;-4.90;1.40;;;-3.97;100.00;97106.82;646983;216;31761;-76
2022/01/14 03:19:25;;;;;;;1.27;1.17;;;-5.00;1.40;;;-4.15;100.00;97092.54;646630;212;31537;-77
2022/01/14 03:27:53;;;;;;;4.20;1.80;;;-5.00;1.40;;;-4.40;100.00;97080.50;643648;213;31599;-76
2022/01/14 03:30:40;;;;;;;3.30;2.60;;;-4.90;1.40;;;-4.34;100.00;97080.56;646877;216;31597;-74
2022/01/14 03:35:53;;;;;;;4.60;2.10;;;-4.90;1.40;;;-4.40;100.00;97073.43;646954;212;31598;-77
2022/01/14 03:38:40;;;;;;;3.87;1.75;;;-4.90;1.40;;;-4.34;100.00;97067.99;646395;216;42491;-73
2022/01/14 03:41:22;;;;;;;3.85;1.70;;;-4.90;1.40;;;-4.32;100.00;97074.83;648155;216;31545;-74
2022/01/14 03:44:04;;;;;;;3.15;2.03;;;-5.00;1.40;;;-4.21;100.00;97072.81;646884;216;33159;-76
2022/01/14 03:46:51;;;;;;;2.67;2.47;;;-5.10;1.40;;;-4.28;100.00;97075.14;647370;212;31600;-77
2022/01/14 03:49:33;;;;;;;6.72;2.05;;;-5.10;1.40;;;-4.39;100.00;97069.48;618849;222;33051;-77
2022/01/14 03:52:17;;;;;;;4.68;1.40;;;-5.10;1.40;;;-4.36;100.00;97070.30;646924;216;31744;-73
2022/01/14 03:54:59;;;;;;;3.97;1.70;;;-5.10;1.40;;;-4.42;100.00;97062.45;618021;226;31933;-76
2022/01/14 03:57:43;;;;;;;4.40;2.75;;;-5.10;1.40;;;-4.36;100.00;97056.90;619289;222;43298;-77
2022/01/14 04:00:25;;;;;;;5.80;2.60;;;-5.10;1.40;;;-4.36;100.00;97061.75;619992;222;32479;-77
2022/01/14 04:03:07;;;;;;;3.10;1.37;;;-5.00;1.40;;;-4.37;100.00;97062.34;647798;212;42360;-77
2022/01/14 04:05:49;;;;;;;4.45;2.15;;;-5.00;1.40;;;-4.39;100.00;97058.44;642317;216;31676;-78
2022/01/14 04:08:31;;;;;;;3.10;1.50;;;-5.00;1.40;;;-4.36;100.00;97052.91;647104;212;31528;-77
2022/01/14 04:11:15;;;;;;;1.40;1.20;;;-5.00;1.40;;;-4.39;100.00;97050.97;646611;212;31585;-77
2022/01/14 04:15:36;;;;;;;6.70;2.62;;;-5.10;1.40;;;-4.48;100.00;97049.13;647349;212;31777;-76
2022/01/14 04:16:50;;;;;;;2.80;2.30;;;-5.10;1.40;;;-4.52;100.00;97051.59;647208;216;31531;-77
2022/01/14 04:19:33;;;;;;;4.35;1.75;;;-5.10;1.40;;;-4.51;100.00;97051.02;647338;216;31697;-77
2022/01/14 04:22:16;;;;;;;1.20;1.20;;;-5.10;1.40;;;-4.49;100.00;97043.19;647362;212;31555;-77
2022/01/14 04:24:57;;;;;;;6.65;2.65;;;-5.10;1.40;;;-4.48;100.00;97041.17;647506;216;42851;-77
2022/01/14 04:27:39;;;;;;;1.77;1.58;;;-5.10;1.40;;;-4.47;100.00;97035.76;647177;212;31518;-77
2022/01/14 04:30:24;;;;;;;5.20;2.22;;;-5.10;1.40;;;-4.52;100.00;97039.15;619475;226;32060;-77
2022/01/14 04:35:52;;;;;;;5.12;2.10;;;-5.10;1.40;;;-4.48;100.00;97038.86;618482;222;31939;-77
2022/01/14 04:38:35;;;;;;;3.55;2.40;;;-5.20;1.40;;;-4.47;100.00;97043.58;648342;212;42733;-77
2022/01/14 04:41:19;;;;;;;6.60;2.83;;;-5.20;1.40;;;-4.43;100.00;97045.91;646288;216;31532;-77
2022/01/14 04:44:06;;;;;;;3.35;2.90;;;-5.10;1.40;;;-4.38;100.00;97044.19;648181;212;31578;-77
2022/01/14 04:47:01;;;;;;;2.90;2.20;;;-5.10;1.40;;;-4.45;100.00;97037.11;647812;216;42821;-77
2022/01/14 04:49:31;;;;;;;1.30;0.90;;;-5.10;1.40;;;-4.48;100.00;97038.31;647928;216;42725;-78
2022/01/14 04:52:15;;;;;;;2.95;1.35;;;-5.10;1.40;;;-4.53;100.00;97038.55;645804;216;31713;-76
2022/01/14 04:54:58;;;;;;;3.55;2.55;;;-5.10;1.40;;;-4.49;100.00;97036.52;646992;212;42770;-77
2022/01/14 04:57:41;;;;;;;2.10;1.80;;;-5.20;1.40;;;-4.48;100.00;97036.73;647226;212;31663;-77
2022/01/14 05:00:23;;;;;;;5.40;1.80;;;-5.30;1.40;;;-4.44;100.00;97037.08;619344;226;42702;-76
2022/01/14 05:03:08;;;;;;;2.90;1.80;;;-5.20;1.40;;;-4.42;100.00;97038.17;647794;212;31571;-77
2022/01/14 05:05:54;;;;;;;2.25;1.55;;;-5.20;1.40;;;-4.38;100.00;97041.67;646772;212;42157;-77
2022/01/14 05:08:37;;;;;;;4.70;2.58;;;-5.20;1.40;;;-4.33;100.00;97043.88;647425;212;31932;-76
2022/01/14 05:11:24;;;;;;;1.35;1.25;;;-5.20;1.40;;;-4.40;100.00;97044.84;646506;212;31573;-77
2022/01/14 05:14:02;;;;;;;3.33;1.65;;;-5.20;1.40;;;-4.46;100.00;97048.67;647057;216;31564;-77
2022/01/14 05:16:44;;;;;;;2.40;2.30;;;-5.20;1.40;;;-4.51;100.00;97054.66;646729;212;31632;-77
2022/01/14 05:19:31;;;;;;;2.58;2.12;;;-5.30;1.40;;;-4.63;100.00;97045.95;646823;216;31589;-74
2022/01/14 05:22:13;;;;;;;1.10;0.82;;;-5.30;1.40;;;-4.73;100.00;97045.28;646536;212;42159;-77
2022/01/14 05:25:01;;;;;;;5.30;3.50;;;-5.30;1.40;;;-4.68;100.00;97039.22;646469;212;31860;-76
2022/01/14 05:27:43;;;;;;;2.40;2.20;;;-5.20;1.40;;;-4.67;100.00;97032.92;647387;216;31620;-75
2022/01/14 05:30:24;;;;;;;4.05;2.20;;;-5.10;1.40;;;-4.60;100.00;97028.52;647201;216;42885;-77
2022/01/14 05:35:51;;;;;;;2.03;1.27;;;-5.00;1.40;;;-4.52;100.00;97024.13;646621;216;42228;-76
2022/01/14 05:38:32;;;;;;;5.80;2.55;;;-5.00;1.40;;;-4.48;100.00;97025.87;646762;216;31590;-77
2022/01/14 05:41:20;;;;;;;2.55;1.70;;;-4.90;1.40;;;-4.40;100.00;97026.25;619127;226;42503;-77
2022/01/14 05:44:03;;;;;;;2.80;2.03;;;-4.80;1.40;;;-4.32;100.00;97023.31;643353;213;42393;-77
2022/01/14 05:46:44;;;;;;;4.43;2.00;;;-4.80;1.40;;;-4.17;100.00;97025.75;647133;216;31955;-77
2022/01/14 05:49:31;;;;;;;2.78;2.08;;;-4.70;1.40;;;-4.11;100.00;97023.09;643504;216;31569;-77
2022/01/14 05:52:14;;;;;;;5.00;2.17;;;-4.70;1.40;;;-4.09;100.00;97026.14;647258;216;42200;-77
2022/01/14 05:54:56;;;;;;;2.70;2.50;;;-4.70;1.40;;;-4.08;100.00;97023.56;645985;212;42737;-78
2022/01/14 05:57:38;;;;;;;2.20;1.65;;;-4.80;1.40;;;-4.08;100.00;97032.07;647373;216;31820;-77
2022/01/14 06:00:20;;;;;;;2.42;1.42;;;-4.80;1.40;;;-4.13;100.00;97031.77;647665;216;42274;-76
2022/01/14 06:03:01;;;;;;;3.30;1.40;;;-4.80;1.40;;;-4.08;100.00;97032.70;620316;226;31872;-77
2022/01/14 06:05:43;;;;;;;4.20;1.90;;;-4.90;1.40;;;-4.17;100.00;97036.63;642736;212;31774;-77
2022/01/14 06:08:26;;;;;;;2.30;2.10;;;-4.90;1.40;;;-4.09;100.00;97036.94;646685;216;35765;-77
2022/01/14 06:11:17;;;;;;;2.30;1.40;;;-4.90;1.40;;;-4.12;100.00;97038.09;645888;216;34516;-76
2022/01/14 06:14:05;;;;;;;1.40;1.05;;;-4.90;1.40;;;-4.14;100.00;97039.98;648129;216;42193;-77
2022/01/14 06:16:52;;;;;;;1.98;1.35;;;-4.90;1.40;;;-4.03;100.00;97043.13;646709;212;42166;-76
2022/01/14 06:19:34;;;;;;;3.80;2.40;;;-4.90;1.40;;;-4.06;100.00;97046.73;647607;212;33477;-76
2022/01/14 06:22:19;;;;;;;5.40;2.03;;;-4.80;1.40;;;-4.13;100.00;97044.02;646293;216;42198;-76
2022/01/14 06:25:09;;;;;;;1.80;1.70;;;-4.80;1.40;;;-4.16;100.00;97044.77;644737;216;42409;-76
2022/01/14 06:27:51;;;;;;;2.53;1.25;;;-4.90;1.40;;;-4.18;100.00;97050.59;647005;216;31531;-74
2022/01/14 06:30:35;;;;;;;3.65;1.83;;;-4.80;1.40;;;-4.20;100.00;97046.16;647800;212;31590;-76
2022/01/14 06:35:51;;;;;;;3.60;2.20;;;-4.90;1.40;;;-4.21;100.00;97044.04;648260;212;31797;-77
2022/01/14 06:38:33;;;;;;;6.80;1.80;;;-4.90;1.40;;;-4.19;100.00;97040.77;646797;212;31603;-77
2022/01/14 06:41:15;;;;;;;6.37;2.80;;;-4.90;1.40;;;-4.17;100.00;97039.75;647000;212;31571;-77
2022/01/14 06:43:58;;;;;;;3.35;1.33;;;-5.00;1.40;;;-4.23;100.00;97039.59;620976;222;32619;-77
2022/01/14 06:46:39;;;;;;;3.00;1.15;;;-5.00;1.40;;;-4.16;100.00;97034.98;647265;216;31698;-77
2022/01/14 06:49:28;;;;;;;4.90;0.90;;;-4.80;1.40;;;-4.25;100.00;97034.13;647017;216;31562;-76
2022/01/14 06:52:10;;;;;;;1.50;1.40;;;-4.80;1.40;;;-4.23;100.00;97035.78;646056;216;32249;-77
2022/01/14 06:54:52;;;;;;;5.10;2.70;;;-4.70;1.40;;;-4.20;100.00;97031.45;646900;212;31545;-77
2022/01/14 06:57:36;;;;;;;3.00;1.48;;;-4.80;1.40;;;-4.16;100.00;97032.16;619348;225;31960;-77
2022/01/14 07:00:18;;;;;;;4.62;2.55;;;-4.70;1.40;;;-4.15;100.00;97033.70;619228;226;31959;-77
2022/01/14 07:02:59;;;;;;;2.60;1.70;;;-4.60;1.40;;;-4.07;100.00;97036.70;646367;212;31654;-77
2022/01/14 07:05:44;;;;;;;1.80;1.50;;;-4.50;1.40;;;-4.03;100.00;97029.44;616711;226;31996;-77
2022/01/14 07:08:26;;;;;;;1.85;1.75;;;-4.60;1.40;;;-3.88;100.00;97035.34;646937;212;31722;-77
2022/01/14 07:11:11;;;;;;;5.60;2.62;;;-4.40;1.40;;;-3.74;100.00;97031.42;646497;212;31573;-76
2022/01/14 07:13:52;;;;;;;4.10;2.10;;;-4.10;1.40;;;-3.57;100.00;97034.91;647941;216;31567;-77
2022/01/14 07:16:34;;;;;;;1.92;1.83;;;-4.00;1.40;;;-3.45;100.00;97038.25;646934;216;31737;-77
2022/01/14 07:19:18;;;;;;;1.70;1.50;;;-3.90;1.40;;;-3.33;100.00;97040.91;647139;216;31594;-77
2022/01/14 07:21:57;;;;;;;2.30;1.58;;;-3.80;1.40;;;-3.25;100.00;97046.41;646386;216;31547;-76
2022/01/14 07:24:45;;;;;;;2.22;1.65;;;-3.80;1.40;;;-3.16;100.00;97046.07;646227;212;31608;-77
2022/01/14 07:27:32;;;;;;;2.60;1.67;;;-3.60;1.40;;;-3.05;100.00;97050.72;645511;216;31592;-76
2022/01/14 07:30:15;;;;;;;1.90;1.50;;;-3.50;1.40;;;-2.96;100.00;97051.52;648160;212;31625;-76
2022/01/14 07:33:00;;;;;;;1.90;1.80;;;-3.40;1.40;;;-2.83;100.00;97052.26;645577;212;31531;-76
2022/01/14 07:35:51;;;;;;;2.60;1.50;;;-3.30;1.40;;;-2.79;100.00;97038.21;648225;212;31605;-76
2022/01/14 07:38:32;;;;;;;1.80;1.70;;;-3.20;1.40;;;-2.73;100.00;97038.07;647317;216;31721;-77
2022/01/14 07:41:14;;;;;;;3.20;1.75;;;-3.20;1.40;;;-2.65;100.00;97040.17;647329;212;31537;-76
2022/01/14 07:43:59;;;;;;;1.58;1.48;;;-3.10;1.40;;;-2.51;100.00;97039.58;646962;216;31655;-77
2022/01/14 07:46:40;;;;;;;1.92;1.00;;;-3.00;1.40;;;-2.45;100.00;97039.43;647703;216;31508;-77
2022/01/14 07:49:34;;;;;;;1.98;1.58;;;-2.90;1.40;;;-2.30;100.00;97039.73;648524;212;31753;-76
2022/01/14 07:52:21;;;;;;;2.05;1.80;;;-2.80;1.40;;;-2.22;100.00;97042.37;646386;214;32219;-76
2022/01/14 07:55:12;;;;;;;1.95;1.85;;;-2.70;1.40;;;-2.12;100.00;97043.34;621178;222;31887;-76
2022/01/14 07:58:02;;;;;;;4.47;3.70;;;-2.60;1.40;;;-2.04;100.00;97044.64;620328;224;32005;-76
2022/01/14 08:00:44;;;;;;;3.53;2.60;;;-2.60;1.40;;;-1.94;100.00;97045.98;645529;216;31721;-77
2022/01/14 08:03:27;;;;;;;2.12;1.95;;;-2.50;1.40;;;-1.84;100.00;97049.27;646494;212;31626;-76
2022/01/14 08:06:13;;;;;;;2.10;1.70;;;-2.40;1.40;;;-1.76;100.00;97049.63;614777;222;32093;-76
2022/01/14 08:08:54;;;;;;;3.05;2.30;;;-2.20;1.40;;;-1.67;100.00;97050.58;620091;226;32083;-76
2022/01/14 08:11:36;;;;;;;2.22;2.10;;;-2.10;1.40;;;-1.58;100.00;97049.06;646953;212;31608;-77
2022/01/14 08:14:25;;;;;;;3.83;2.58;;;-2.00;1.40;;;-1.44;100.00;97052.30;648089;216;32907;-75
2022/01/14 08:17:07;;;;;;;2.45;2.25;;;-1.90;1.40;;;-1.28;100.00;97055.62;647741;216;32109;-76
2022/01/14 08:19:49;;;;;;;2.50;2.40;;;-1.70;1.40;;;-1.20;100.00;97051.82;646898;212;31857;-76
2022/01/14 08:22:31;;;;;;;4.72;3.30;;;-1.60;1.40;;;-1.16;100.00;97049.65;616106;227;42519;-77
2022/01/14 08:25:13;;;;;;;2.75;2.55;;;-1.60;1.40;;;-1.09;100.00;97047.94;648673;216;31624;-76
2022/01/14 08:27:54;;;;;;;4.60;1.95;;;-1.50;1.40;;;-0.93;100.00;97049.38;646751;212;31635;-76
2022/01/14 08:35:51;;;;;;;2.30;2.10;;;-1.20;1.40;;;-0.64;100.00;97050.98;647410;216;31990;-77
2022/01/14 08:38:33;;;;;;;2.85;2.65;;;-1.10;1.40;;;-0.56;100.00;97054.83;647236;216;31528;-77
2022/01/14 08:41:14;;;;;;;2.70;2.50;;;-1.00;1.40;;;-0.42;100.00;97052.81;647425;212;31530;-76
2022/01/14 08:46:34;;;;;;;4.37;3.10;;;-0.80;1.40;;;-0.21;100.00;97063.83;647554;216;31557;-76
2022/01/14 08:49:15;;;;;;;8.93;7.55;;;-0.70;1.40;;;-0.13;100.00;97060.72;647258;212;32060;-76
2022/01/14 08:51:57;;;;;;;3.03;2.72;;;-0.50;1.40;;;-0.07;100.00;97063.11;646749;216;31639;-76
2022/01/14 08:54:42;;;;;;;5.50;3.62;;;-0.40;1.40;;;0.05;100.00;97055.82;647070;212;31708;-76
2022/01/14 08:57:23;;;;;;;2.62;2.42;;;-0.30;1.40;;;0.13;100.00;97057.34;647350;216;31992;-76
2022/01/14 09:00:09;;;;;;;3.50;3.08;;;-0.10;1.40;;;0.48;100.00;97056.66;646272;216;42377;-76
2022/01/14 09:02:52;;;;;;;2.40;2.30;;;0.60;1.40;;;1.82;100.00;97054.31;647508;212;31606;-76
2022/01/14 09:05:34;;;;;;;5.18;2.53;;;2.70;1.40;;;3.31;100.00;97047.73;643718;212;42328;-76
2022/01/14 09:08:15;;;;;;;4.93;3.45;;;3.90;1.40;;;4.58;100.00;97046.91;619673;226;31910;-76
2022/01/14 09:10:57;;;;;;;8.15;4.10;;;4.40;1.40;;;5.46;100.00;97049.74;648082;216;31710;-75
2022/01/14 09:13:39;;;;;;;4.10;3.40;;;4.10;1.40;;;5.92;100.00;97048.91;648380;212;31576;-76
2022/01/14 09:16:20;;;;;;;5.07;4.00;;;4.40;1.40;;;5.97;100.00;97045.22;619676;226;32203;-76
2022/01/14 09:19:05;;;;;;;6.57;4.03;;;4.50;1.40;;;6.71;97.97;97044.55;646906;216;42218;-77
2022/01/14 09:21:47;;;;;;;5.87;3.40;;;5.00;1.40;;;7.10;96.99;97048.00;647769;216;31602;-77
2022/01/14 09:24:29;;;;;;;4.97;3.90;;;5.30;1.40;;;8.36;96.88;97043.14;647621;212;32189;-77
2022/01/14 09:27:10;;;;;;;6.55;4.80;;;6.10;1.40;;;9.94;81.87;97041.18;618340;226;31968;-77
2022/01/14 09:29:54;;;;;;;7.03;4.12;;;7.10;1.40;;;10.13;79.51;97040.51;646716;216;31597;-77
2022/01/14 09:32:34;;;;;;;4.07;3.62;;;6.50;1.40;;;10.35;83.11;97035.37;647024;216;31569;-77
2022/01/14 09:35:51;;;;;;;5.32;3.78;;;6.00;1.40;;;10.48;79.48;97033.45;645356;215;31791;-77
2022/01/14 09:38:36;;;;;;;5.57;3.67;;;6.90;1.40;;;12.78;86.96;97032.62;621226;226;32079;-78
2022/01/14 09:41:19;;;;;;;5.15;3.80;;;8.40;1.40;;;11.08;69.37;97035.02;646675;216;31686;-77
2022/01/14 09:44:03;;;;;;;5.12;3.70;;;7.70;1.40;;;14.27;86.14;97031.77;646616;216;31567;-77
2022/01/14 09:46:45;;;;;;;5.13;3.80;;;9.50;1.40;;;14.23;69.68;97038.85;618355;222;32443;-77
2022/01/14 09:49:33;;;;;;;4.93;3.50;;;10.10;1.40;;;13.19;62.24;97039.12;645875;216;31600;-75
2022/01/14 09:52:20;;;;;;;4.68;3.30;;;10.40;1.40;;;14.25;63.28;97038.67;642700;215;31579;-76
2022/01/14 09:55:05;;;;;;;4.50;3.50;;;10.70;1.40;;;12.93;60.88;97040.62;647547;216;31691;-78
2022/01/14 10:00:24;;;;;;;4.75;3.60;;;10.40;1.40;;;15.66;69.34;97042.61;647081;213;31543;-78
2022/01/14 10:05:47;;;;;;;3.63;2.90;;;12.40;1.40;;;18.38;55.03;97041.83;615276;222;32038;-75
2022/01/14 10:08:27;;;;;;;4.30;3.10;;;12.80;1.40;;;16.99;48.47;97034.48;620311;226;33926;-76
2022/01/14 10:11:08;;;;;;;4.10;3.12;;;11.50;1.40;;;16.43;47.12;97035.39;646513;216;31550;-77
2022/01/14 10:13:50;;;;;;;4.47;3.28;;;11.90;1.40;;;15.82;49.25;97040.57;645917;216;42491;-75
2022/01/14 10:16:31;;;;;;;3.90;3.15;;;11.30;1.40;;;17.52;51.17;97028.72;647565;216;42788;-77
2022/01/14 10:19:27;;;;;;;4.43;3.30;;;11.90;1.40;;;16.31;45.98;97030.72;618836;226;42702;-76
2022/01/14 10:22:23;;;;;;;3.85;3.25;;;10.80;1.40;;;16.14;48.17;97026.02;619490;225;34508;-76
2022/01/14 10:25:06;;;;;;;3.67;3.20;;;10.00;1.40;;;16.07;52.53;97024.78;647448;212;34640;-76
2022/01/14 10:27:49;;;;;;;4.50;4.10;;;10.50;1.40;;;16.44;52.03;97018.73;645875;212;42244;-76
2022/01/14 10:30:32;;;;;;;4.53;3.20;;;10.70;1.40;;;17.16;47.90;97016.21;646864;212;42153;-76
2022/01/14 10:38:39;;;;;;;3.50;3.20;;;11.10;1.40;;;15.63;47.14;97017.89;618317;222;42741;-76
2022/01/14 10:41:22;;;;;;;3.70;3.30;;;10.60;1.40;;;14.92;45.83;97017.80;647594;213;32190;-76
2022/01/14 10:44:22;;;;;;;3.20;2.90;;;9.90;1.40;;;15.82;45.67;97016.34;645790;216;31599;-75
2022/01/14 10:47:14;;;;;;;4.80;3.20;;;10.10;1.40;;;15.70;47.90;97016.89;647167;216;31557;-76
2022/01/14 10:49:57;;;;;;;3.87;3.10;;;10.30;1.40;;;15.24;45.25;97012.85;615858;224;32046;-78
2022/01/14 10:52:39;;;;;;;4.10;3.33;;;10.10;1.40;;;14.42;45.82;97014.94;647627;212;31560;-77
2022/01/14 10:55:31;;;;;;;3.03;2.70;;;10.20;1.40;;;15.25;47.78;97009.37;645868;216;31772;-75
2022/01/14 10:58:13;;;;;;;3.20;2.87;;;10.20;1.40;;;15.30;45.95;97011.41;647043;212;32235;-75
2022/01/14 11:00:57;;;;;;;5.15;3.17;;;9.90;1.40;;;13.96;48.02;97009.59;646546;216;31973;-75
2022/01/14 11:03:45;;;;;;;2.53;2.33;;;10.20;1.40;;;15.24;46.72;97002.91;648240;212;31602;-76
2022/01/14 11:06:29;;;;;;;3.15;2.60;;;10.70;1.40;;;15.82;46.29;96998.12;637824;212;31903;-76
2022/01/14 11:09:17;;;;;;;3.80;3.20;;;11.70;1.40;;;16.82;42.27;96990.72;619346;226;31960;-76
2022/01/14 11:12:06;;;;;;;4.03;2.70;;;12.10;1.40;;;17.99;43.69;96992.12;619848;222;31934;-77
2022/01/14 11:14:50;;;;;;;4.12;2.70;;;13.80;1.40;;;19.45;37.50;96981.09;646155;212;31536;-75
2022/01/14 11:17:34;;;;;;;3.90;3.00;;;14.30;1.40;;;19.82;38.78;96984.09;619243;222;42563;-77
2022/01/14 11:20:21;;;;;;;3.58;2.53;;;14.60;1.40;;;18.67;37.10;96985.13;619757;226;32029;-75
2022/01/14 11:25:49;;;;;;;4.85;3.22;;;13.50;1.40;;;19.07;40.23;96971.50;646954;216;31783;-76
2022/01/14 11:28:34;;;;;;;2.92;2.60;;;13.00;1.40;;;17.71;38.06;96973.77;646575;216;42258;-76
2022/01/14 11:31:30;;;;;;;3.15;2.37;;;11.70;1.40;;;17.01;40.65;96966.75;647159;212;31637;-76
2022/01/14 11:35:54;;;;;;;3.30;2.90;;;12.60;1.40;;;18.63;40.66;96959.17;620466;226;32038;-76
2022/01/14 11:38:42;;;;;;;3.03;2.72;;;13.70;1.40;;;17.65;39.46;96961.80;646430;212;32140;-75
2022/01/14 11:41:37;;;;;;;3.58;2.80;;;13.20;1.40;;;19.57;39.43;96946.03;647462;216;31589;-78
2022/01/14 11:44:39;;;;;;;3.22;2.92;;;13.10;1.40;;;18.64;39.02;96944.66;645672;212;31759;-75
2022/01/14 11:47:48;;;;;;;3.42;2.85;;;13.60;1.40;;;19.60;38.73;96937.09;606446;230;32037;-77
2022/01/14 11:50:46;;;;;;;3.90;2.87;;;13.90;1.40;;;18.85;35.91;96935.96;647737;212;31599;-75
2022/01/14 11:53:36;;;;;;;3.30;2.72;;;14.00;1.40;;;19.95;36.90;96925.62;645801;212;31727;-79
2022/01/14 11:56:46;;;;;;;3.80;3.10;;;13.90;1.40;;;18.53;35.95;96927.44;647206;212;31576;-78
2022/01/14 11:59:41;;;;;;;3.10;2.80;;;13.50;1.40;;;20.23;39.44;96917.88;647075;216;32282;-77
2022/01/14 12:02:28;;;;;;;3.70;2.83;;;13.30;1.40;;;18.61;37.38;96921.64;645879;212;31560;-78
2022/01/14 12:05:17;;;;;;;3.00;2.50;;;13.10;1.40;;;20.27;38.25;96913.05;645890;216;31602;-75
2022/01/14 12:08:12;;;;;;;4.20;2.50;;;14.00;1.40;;;20.79;33.74;96912.67;643394;216;32333;-75
2022/01/14 12:11:01;;;;;;;2.97;2.67;;;14.20;1.40;;;20.19;37.78;96918.20;643320;215;31710;-77
2022/01/14 12:16:46;;;;;;;3.33;2.83;;;12.80;1.40;;;15.25;40.68;96920.06;646737;212;31688;-75
2022/01/14 12:19:23;;;;;;;3.70;2.90;;;10.60;1.40;;;13.75;44.11;96919.89;646821;212;31554;-76
2022/01/14 12:22:11;;;;;;;3.25;2.30;;;10.00;1.40;;;12.76;47.09;96926.59;646658;216;32508;-77
2022/01/14 12:24:59;;;;;;;5.60;2.65;;;9.40;1.40;;;12.19;49.71;96915.13;646239;216;31598;-75
2022/01/14 12:27:44;;;;;;;2.50;2.00;;;9.80;1.40;;;12.70;48.70;96913.68;646921;216;31646;-75
2022/01/14 12:30:27;;;;;;;2.45;1.90;;;9.50;1.40;;;12.40;48.48;96911.51;618878;222;42569;-75
2022/01/14 12:35:51;;;;;;;3.78;2.20;;;10.30;1.40;;;12.61;47.77;96914.52;646029;216;31573;-75
2022/01/14 12:38:35;;;;;;;3.30;1.90;;;9.90;1.40;;;11.77;51.84;96906.22;645916;212;32284;-75
2022/01/14 12:41:18;;;;;;;2.60;2.10;;;9.50;1.40;;;12.29;51.11;96901.13;618753;226;32420;-75
2022/01/14 12:44:00;;;;;;;4.18;2.25;;;9.70;1.40;;;11.58;55.47;96898.69;646388;212;31703;-77
2022/01/14 12:46:56;;;;;;;3.90;2.78;;;9.90;1.40;;;11.69;56.64;96897.35;647220;212;31648;-76